Time;durP1;ratioP1;P1;durP2;ratioP2;P2;SDS_P1;SDS_P2;PMS_P1;PMS_P2;Temp;Humidity;BMP_temperature;BMP_pressure;BME280_temperature;BME280_humidity;BME280_pressure;Samples;Min_cycle;Max_cycle;Signal;HPM_P1;HPM_P2
2021/08/30 00:01:53;;;;;;;1029.75;928.63;;;;;;;;;;4976561;28;20045;-78
2021/08/30 00:04:19;;;;;;;1022.38;922.08;;;;;;;;;;4985066;28;20026;-79
2021/08/30 00:06:48;;;;;;;1015.70;915.70;;;;;;;;;;4978192;28;20509;-81
2021/08/30 00:09:14;;;;;;;1049.25;946.25;;;;;;;;;;4984054;28;20464;-79
2021/08/30 00:11:40;;;;;;;1046.60;943.83;;;;;;;;;;4984501;28;20233;-79
2021/08/30 00:14:06;;;;;;;1037.78;935.63;;;;;;;;;;4973198;28;20180;-79
2021/08/30 00:16:32;;;;;;;1057.50;953.70;;;;;;;;;;4988869;28;20022;-78
2021/08/30 00:18:58;;;;;;;963.92;867.58;;;;;;;;;;4978479;28;20799;-78
2021/08/30 00:21:24;;;;;;;1031.57;929.60;;;;;;;;;;4977983;28;20418;-79
2021/08/30 00:23:50;;;;;;;1049.95;946.70;;;;;;;;;;4990540;28;20023;-80
2021/08/30 00:26:16;;;;;;;1054.40;951.13;;;;;;;;;;4983925;28;20041;-78
2021/08/30 00:28:42;;;;;;;1047.40;944.45;;;;;;;;;;4974237;28;20041;-78
2021/08/30 00:31:08;;;;;;;1061.03;956.72;;;;;;;;;;4991525;28;20022;-77
2021/08/30 00:33:34;;;;;;;1060.82;956.72;;;;;;;;;;4985548;28;20035;-77
2021/08/30 00:36:00;;;;;;;1042.30;939.83;;;;;;;;;;4971771;28;20032;-78
2021/08/30 00:38:26;;;;;;;1057.38;953.47;;;;;;;;;;4986390;28;20030;-78
2021/08/30 00:40:52;;;;;;;1062.32;958.30;;;;;;;;;;4976975;28;20041;-78
2021/08/30 00:43:18;;;;;;;1053.85;950.28;;;;;;;;;;4993894;28;20442;-78
2021/08/30 00:45:44;;;;;;;1055.60;951.70;;;;;;;;;;4987144;28;20438;-78
2021/08/30 00:48:10;;;;;;;1061.65;957.40;;;;;;;;;;4969788;28;20023;-77
2021/08/30 00:50:36;;;;;;;1058.35;954.30;;;;;;;;;;4985955;28;20023;-78
2021/08/30 00:53:03;;;;;;;1072.40;967.38;;;;;;;;;;4983662;28;20077;-78
2021/08/30 00:55:29;;;;;;;1063.03;958.92;;;;;;;;;;4972042;28;20022;-78
2021/08/30 00:57:54;;;;;;;1056.20;952.50;;;;;;;;;;4997171;28;20034;-78
2021/08/30 01:00:20;;;;;;;1062.10;957.83;;;;;;;;;;4984132;28;20069;-77
2021/08/30 01:02:47;;;;;;;1055.88;952.20;;;;;;;;;;4970307;28;20418;-79
2021/08/30 01:05:15;;;;;;;1058.90;954.85;;;;;;;;;;4985929;28;20064;-79
2021/08/30 01:07:54;;;;;;;1053.85;950.15;;;;;;;;;;4975952;28;20030;-79
2021/08/30 01:10:33;;;;;;;1054.70;951.00;;;;;;;;;;4982744;28;20048;-78
2021/08/30 01:13:00;;;;;;;1062.63;958.63;;;;;;;;;;4981481;28;20057;-79
2021/08/30 01:15:39;;;;;;;1053.72;949.92;;;;;;;;;;4978586;28;20379;-79
2021/08/30 01:18:05;;;;;;;1049.50;945.83;;;;;;;;;;4995098;28;20046;-78
2021/08/30 01:20:37;;;;;;;1056.60;952.75;;;;;;;;;;4983509;28;20104;-79
2021/08/30 01:23:04;;;;;;;1046.80;943.35;;;;;;;;;;4984391;28;20383;-79
2021/08/30 01:25:31;;;;;;;1053.85;950.17;;;;;;;;;;4993686;28;20486;-79
2021/08/30 01:27:57;;;;;;;1055.72;952.08;;;;;;;;;;4976350;28;20034;-79
2021/08/30 01:30:25;;;;;;;1048.95;945.72;;;;;;;;;;4985192;28;20326;-79
2021/08/30 01:32:52;;;;;;;1054.53;950.53;;;;;;;;;;4982995;28;20064;-78
2021/08/30 01:35:19;;;;;;;1055.65;951.83;;;;;;;;;;4990944;28;20022;-79
2021/08/30 01:37:47;;;;;;;1046.72;943.88;;;;;;;;;;4984355;28;20038;-79
2021/08/30 01:40:14;;;;;;;1048.60;945.10;;;;;;;;;;4989660;28;20030;-79
2021/08/30 01:42:41;;;;;;;1047.50;944.15;;;;;;;;;;4973437;28;20035;-79
2021/08/30 01:45:09;;;;;;;1046.63;943.10;;;;;;;;;;4986634;28;20038;-79
2021/08/30 01:47:35;;;;;;;1057.38;953.25;;;;;;;;;;4978124;28;20074;-79
2021/08/30 01:50:03;;;;;;;1044.32;941.13;;;;;;;;;;4989422;28;20057;-79
2021/08/30 01:52:49;;;;;;;1040.22;937.55;;;;;;;;;;4993485;28;20438;-80
2021/08/30 01:55:21;;;;;;;1052.20;948.20;;;;;;;;;;4983140;28;20536;-79
2021/08/30 02:00:47;;;;;;;1047.47;943.88;;;;;;;;;;4992091;28;20141;-79
2021/08/30 02:03:18;;;;;;;1048.60;944.80;;;;;;;;;;4970885;28;20039;-79
2021/08/30 02:05:45;;;;;;;1045.82;942.53;;;;;;;;;;4986809;28;20034;-79
2021/08/30 02:08:14;;;;;;;1027.57;926.30;;;;;;;;;;4984743;28;20033;-80
2021/08/30 02:10:41;;;;;;;1046.97;943.58;;;;;;;;;;4996089;28;20421;-79
2021/08/30 02:13:07;;;;;;;1045.93;942.85;;;;;;;;;;4969504;28;20112;-79
2021/08/30 02:15:32;;;;;;;1049.47;946.17;;;;;;;;;;4998078;28;20026;-79
2021/08/30 02:18:03;;;;;;;1054.30;950.40;;;;;;;;;;4989590;28;20022;-79
2021/08/30 02:20:30;;;;;;;1051.60;948.05;;;;;;;;;;4989873;28;20473;-79
2021/08/30 02:22:59;;;;;;;1050.15;946.75;;;;;;;;;;4990462;28;20040;-79
2021/08/30 02:25:25;;;;;;;1036.15;933.70;;;;;;;;;;4978504;28;20106;-78
2021/08/30 02:27:57;;;;;;;1031.13;929.30;;;;;;;;;;4973246;28;20374;-78
2021/08/30 02:30:35;;;;;;;1039.47;936.67;;;;;;;;;;4988801;28;20037;-78
2021/08/30 02:33:03;;;;;;;1037.82;935.13;;;;;;;;;;4986093;28;20367;-78
2021/08/30 02:35:31;;;;;;;1038.47;935.70;;;;;;;;;;4982399;28;20477;-78
2021/08/30 02:37:57;;;;;;;1034.15;931.83;;;;;;;;;;4987430;28;20398;-78
2021/08/30 02:40:27;;;;;;;1066.57;961.08;;;;;;;;;;4990244;28;20389;-78
2021/08/30 02:42:53;;;;;;;1071.32;965.55;;;;;;;;;;4985744;28;20037;-78
2021/08/30 02:45:20;;;;;;;974.42;869.55;;;;;;;;;;4987867;28;20054;-78
2021/08/30 02:47:46;;;;;;;1064.40;959.50;;;;;;;;;;4973195;28;20100;-78
2021/08/30 02:50:13;;;;;;;1056.13;951.92;;;;;;;;;;4997172;28;20060;-78
2021/08/30 02:52:39;;;;;;;1055.93;951.63;;;;;;;;;;4990674;28;20058;-78
2021/08/30 02:55:05;;;;;;;1341.88;924.17;;;;;;;;;;4998758;28;20046;-80
2021/08/30 02:57:33;;;;;;;827.22;741.35;;;;;;;;;;4989493;28;20445;-79
2021/08/30 02:59:59;;;;;;;1055.50;950.10;;;;;;;;;;4975334;28;20514;-79
2021/08/30 03:02:25;;;;;;;1058.32;954.45;;;;;;;;;;4977110;28;20035;-79
2021/08/30 03:04:52;;;;;;;1048.78;946.00;;;;;;;;;;4972101;28;20441;-79
2021/08/30 03:07:18;;;;;;;1042.38;939.97;;;;;;;;;;4978454;28;20057;-79
2021/08/30 03:09:44;;;;;;;1044.53;941.47;;;;;;;;;;4982448;28;20057;-79
2021/08/30 03:12:10;;;;;;;1065.18;960.42;;;;;;;;;;4978867;28;20049;-79
2021/08/30 03:14:38;;;;;;;997.10;898.47;;;;;;;;;;4991814;28;20454;-79
2021/08/30 03:17:05;;;;;;;1019.65;919.05;;;;;;;;;;4979027;28;20023;-79
2021/08/30 03:19:31;;;;;;;866.88;778.30;;;;;;;;;;4976078;28;20081;-79
2021/08/30 03:21:59;;;;;;;792.70;708.85;;;;;;;;;;4976098;28;20385;-80
2021/08/30 03:24:25;;;;;;;887.92;798.05;;;;;;;;;;4974269;28;20364;-79
2021/08/30 03:26:52;;;;;;;880.22;791.17;;;;;;;;;;4977174;28;20121;-79
2021/08/30 03:29:19;;;;;;;858.08;770.28;;;;;;;;;;4981451;28;20478;-82
2021/08/30 03:31:47;;;;;;;908.33;816.95;;;;;;;;;;4974419;28;20737;-80
2021/08/30 03:34:13;;;;;;;867.28;778.78;;;;;;;;;;4985797;28;20026;-79
2021/08/30 03:36:39;;;;;;;911.25;819.88;;;;;;;;;;4993905;28;20025;-79
2021/08/30 03:39:06;;;;;;;890.72;800.75;;;;;;;;;;4975818;28;20478;-79
2021/08/30 03:41:32;;;;;;;878.80;789.40;;;;;;;;;;4988148;28;20030;-78
2021/08/30 03:43:58;;;;;;;977.63;880.75;;;;;;;;;;4986859;28;20109;-78
2021/08/30 03:46:25;;;;;;;1001.63;903.03;;;;;;;;;;4989932;28;20035;-78
2021/08/30 03:48:53;;;;;;;1013.30;913.45;;;;;;;;;;4975785;28;20029;-78
2021/08/30 03:51:19;;;;;;;1024.68;923.97;;;;;;;;;;4989549;28;20029;-78
2021/08/30 03:53:45;;;;;;;1018.58;918.22;;;;;;;;;;4984164;28;20026;-78
2021/08/30 03:56:11;;;;;;;1023.20;922.83;;;;;;;;;;4965873;28;20026;-78
2021/08/30 03:58:38;;;;;;;1029.05;928.25;;;;;;;;;;4980704;28;20057;-78
2021/08/30 04:01:06;;;;;;;1018.92;918.65;;;;;;;;;;4978240;28;20045;-78
2021/08/30 04:03:37;;;;;;;1023.67;922.83;;;;;;;;;;4987002;28;20037;-78
2021/08/30 04:06:05;;;;;;;1017.92;917.55;;;;;;;;;;5000745;28;20483;-78
2021/08/30 04:08:31;;;;;;;1028.68;927.75;;;;;;;;;;4997030;28;20083;-78
2021/08/30 04:10:58;;;;;;;1028.32;927.38;;;;;;;;;;4974531;28;20033;-78
2021/08/30 04:13:25;;;;;;;1023.88;923.28;;;;;;;;;;4990391;28;20030;-78
2021/08/30 04:15:51;;;;;;;1026.10;925.30;;;;;;;;;;4985073;28;20235;-77
2021/08/30 04:18:16;;;;;;;1053.28;950.15;;;;;;;;;;5006834;28;20373;-78
2021/08/30 04:20:42;;;;;;;1060.65;956.92;;;;;;;;;;4976984;28;20124;-78
2021/08/30 04:23:08;;;;;;;1054.50;951.10;;;;;;;;;;4990572;28;20034;-78
2021/08/30 04:25:34;;;;;;;1050.00;946.63;;;;;;;;;;4994245;28;20034;-78
2021/08/30 04:28:00;;;;;;;1049.30;946.20;;;;;;;;;;4980179;28;20026;-78
2021/08/30 04:30:26;;;;;;;1042.63;940.08;;;;;;;;;;4982397;28;20022;-80
2021/08/30 04:32:55;;;;;;;1049.65;946.50;;;;;;;;;;4983272;28;20058;-77
2021/08/30 04:35:22;;;;;;;1052.80;949.60;;;;;;;;;;4978068;28;20026;-78
2021/08/30 04:37:48;;;;;;;1052.20;948.42;;;;;;;;;;4967122;28;20137;-78
2021/08/30 04:40:14;;;;;;;1051.25;947.90;;;;;;;;;;4968398;28;20398;-78
2021/08/30 04:42:40;;;;;;;1049.25;946.05;;;;;;;;;;4986795;28;20120;-78
2021/08/30 04:45:06;;;;;;;1059.60;955.88;;;;;;;;;;4984786;28;20073;-79
2021/08/30 04:47:33;;;;;;;1059.38;955.70;;;;;;;;;;4981240;28;20465;-79
2021/08/30 04:49:59;;;;;;;1049.50;946.38;;;;;;;;;;4974057;28;20481;-79
2021/08/30 04:52:25;;;;;;;1063.93;959.72;;;;;;;;;;4990990;28;20034;-79
2021/08/30 04:54:51;;;;;;;1058.70;955.05;;;;;;;;;;4972193;28;20022;-79
2021/08/30 04:57:17;;;;;;;1053.05;949.85;;;;;;;;;;4972114;28;20062;-78
2021/08/30 04:59:43;;;;;;;1053.57;950.20;;;;;;;;;;4976841;28;20050;-79
2021/08/30 05:02:10;;;;;;;1054.85;951.53;;;;;;;;;;4980592;28;20023;-79
2021/08/30 05:04:36;;;;;;;1053.93;950.80;;;;;;;;;;4976536;28;20026;-79
2021/08/30 05:07:02;;;;;;;1028.88;927.92;;;;;;;;;;4983822;28;20540;-79
2021/08/30 05:09:29;;;;;;;1057.78;954.47;;;;;;;;;;4979359;28;20113;-79
2021/08/30 05:11:55;;;;;;;1072.30;967.90;;;;;;;;;;4980384;28;20560;-79
2021/08/30 05:14:21;;;;;;;1061.25;957.53;;;;;;;;;;4983751;28;20275;-79
2021/08/30 05:16:47;;;;;;;1070.22;965.63;;;;;;;;;;4979482;28;20038;-79
2021/08/30 05:19:13;;;;;;;1069.45;964.65;;;;;;;;;;4987835;28;20031;-79
2021/08/30 05:21:39;;;;;;;776.45;694.58;;;;;;;;;;4976809;28;20454;-79
2021/08/30 05:24:07;;;;;;;788.92;706.33;;;;;;;;;;4986564;28;20124;-79
2021/08/30 05:26:33;;;;;;;742.03;661.95;;;;;;;;;;4974539;28;20065;-79
2021/08/30 05:28:59;;;;;;;734.45;655.25;;;;;;;;;;4981562;28;20030;-79
2021/08/30 05:31:25;;;;;;;712.80;634.78;;;;;;;;;;4977671;28;20038;-79
2021/08/30 05:33:51;;;;;;;719.90;636.75;;;;;;;;;;4975077;28;20033;-79
2021/08/30 05:36:18;;;;;;;697.20;618.20;;;;;;;;;;4984366;28;20032;-79
2021/08/30 05:38:44;;;;;;;682.15;590.92;;;;;;;;;;5005713;28;20045;-78
2021/08/30 05:41:10;;;;;;;681.47;593.22;;;;;;;;;;4990907;28;20096;-79
2021/08/30 05:43:36;;;;;;;860.50;773.25;;;;;;;;;;4989775;28;20109;-79
2021/08/30 05:46:02;;;;;;;953.90;860.38;;;;;;;;;;4996541;28;20033;-78
2021/08/30 05:48:28;;;;;;;994.10;896.88;;;;;;;;;;4979806;28;20521;-78
2021/08/30 05:50:54;;;;;;;1087.57;981.65;;;;;;;;;;4971662;28;20029;-78
2021/08/30 05:53:20;;;;;;;1080.32;975.00;;;;;;;;;;4977670;28;20032;-78
2021/08/30 05:55:46;;;;;;;1089.63;983.42;;;;;;;;;;4972253;28;20166;-79
2021/08/30 05:58:12;;;;;;;1020.85;921.42;;;;;;;;;;4978537;28;20125;-78
2021/08/30 06:00:38;;;;;;;1025.53;925.75;;;;;;;;;;4983707;28;20518;-78
2021/08/30 06:03:04;;;;;;;1042.95;941.90;;;;;;;;;;4995618;28;20581;-78
2021/08/30 06:05:30;;;;;;;1048.20;946.55;;;;;;;;;;4982980;28;20018;-78
2021/08/30 06:07:56;;;;;;;1062.68;959.72;;;;;;;;;;4982476;28;20097;-78
2021/08/30 06:10:22;;;;;;;1068.57;964.97;;;;;;;;;;4997071;28;20758;-78
2021/08/30 06:12:48;;;;;;;1070.35;966.65;;;;;;;;;;4978576;28;20602;-78
2021/08/30 06:15:14;;;;;;;1067.60;964.03;;;;;;;;;;4980506;28;20139;-78
2021/08/30 06:17:40;;;;;;;1075.20;971.30;;;;;;;;;;4988577;28;20177;-78
2021/08/30 06:20:07;;;;;;;1065.93;962.47;;;;;;;;;;4983968;28;20317;-78
2021/08/30 06:22:33;;;;;;;1074.72;971.08;;;;;;;;;;4998293;28;21030;-78
2021/08/30 06:24:59;;;;;;;1073.47;969.88;;;;;;;;;;4984566;28;20033;-78
2021/08/30 06:27:25;;;;;;;1076.90;973.00;;;;;;;;;;4992979;28;20105;-78
2021/08/30 06:29:51;;;;;;;1077.75;973.95;;;;;;;;;;4988723;28;20026;-78
2021/08/30 06:32:17;;;;;;;1024.90;926.10;;;;;;;;;;4990849;28;20422;-78
2021/08/30 06:34:43;;;;;;;1030.55;931.40;;;;;;;;;;4991361;28;20479;-78
2021/08/30 06:37:09;;;;;;;1038.18;938.33;;;;;;;;;;4968868;28;20027;-78
2021/08/30 06:39:35;;;;;;;1049.05;948.60;;;;;;;;;;4996925;28;20245;-79
2021/08/30 06:42:01;;;;;;;1053.50;952.55;;;;;;;;;;4983094;28;20057;-79
2021/08/30 06:44:27;;;;;;;1053.88;952.67;;;;;;;;;;4990937;28;20072;-78
2021/08/30 06:46:53;;;;;;;1058.38;957.13;;;;;;;;;;4971651;28;20478;-78
2021/08/30 06:49:19;;;;;;;1049.82;949.28;;;;;;;;;;4982665;28;21160;-79
2021/08/30 06:51:45;;;;;;;1040.50;940.60;;;;;;;;;;4996887;28;20034;-79
2021/08/30 06:54:17;;;;;;;1033.30;934.10;;;;;;;;;;4987108;28;20062;-78
2021/08/30 06:56:43;;;;;;;1029.70;930.65;;;;;;;;;;4986382;28;20054;-78
2021/08/30 06:59:09;;;;;;;1007.40;910.30;;;;;;;;;;4988074;28;20034;-78
2021/08/30 07:01:43;;;;;;;1021.72;923.47;;;;;;;;;;4969381;28;20560;-80
2021/08/30 07:04:31;;;;;;;1016.10;918.42;;;;;;;;;;4993303;28;20033;-80
2021/08/30 07:06:57;;;;;;;1021.55;923.78;;;;;;;;;;4981834;28;20030;-80
2021/08/30 07:09:24;;;;;;;987.45;892.58;;;;;;;;;;4981364;28;20034;-80
2021/08/30 07:11:50;;;;;;;1101.85;995.25;;;;;;;;;;4996073;28;20490;-79
2021/08/30 07:14:16;;;;;;;1084.53;980.70;;;;;;;;;;4994039;28;20077;-80
2021/08/30 07:16:42;;;;;;;1078.82;975.30;;;;;;;;;;4970980;28;20814;-78
2021/08/30 07:19:08;;;;;;;1090.72;987.08;;;;;;;;;;4972132;28;20037;-79
2021/08/30 07:21:34;;;;;;;1114.78;999.90;;;;;;;;;;4984360;28;20766;-79
2021/08/30 07:24:04;;;;;;;1113.65;999.90;;;;;;;;;;4991867;28;20717;-78
2021/08/30 07:26:30;;;;;;;1107.68;999.10;;;;;;;;;;4976324;28;20034;-78
2021/08/30 07:28:56;;;;;;;1108.10;998.78;;;;;;;;;;4976266;28;20034;-78
2021/08/30 07:31:22;;;;;;;1115.78;999.90;;;;;;;;;;4975718;28;20080;-78
2021/08/30 07:33:48;;;;;;;1113.93;999.90;;;;;;;;;;4979465;28;20042;-78
2021/08/30 07:36:14;;;;;;;1121.82;999.90;;;;;;;;;;4984676;28;20038;-78
2021/08/30 07:38:41;;;;;;;1121.53;999.90;;;;;;;;;;4984733;28;20034;-78
2021/08/30 07:41:07;;;;;;;1118.47;999.90;;;;;;;;;;4975366;28;20026;-79
2021/08/30 07:43:33;;;;;;;1118.18;999.90;;;;;;;;;;4994662;28;20255;-80
2021/08/30 07:46:00;;;;;;;1113.20;999.90;;;;;;;;;;4994864;28;20022;-80
2021/08/30 07:51:29;;;;;;;1113.60;999.90;;;;;;;;;;4999513;28;20111;-80
2021/08/30 07:53:57;;;;;;;1123.13;999.90;;;;;;;;;;4990231;28;20034;-80
2021/08/30 07:56:23;;;;;;;1117.15;999.90;;;;;;;;;;4975637;28;20442;-80
2021/08/30 07:58:49;;;;;;;1118.57;999.90;;;;;;;;;;4976575;28;20052;-78
2021/08/30 08:01:15;;;;;;;1116.40;999.90;;;;;;;;;;4963237;28;20053;-79
2021/08/30 08:03:41;;;;;;;1125.50;999.90;;;;;;;;;;4978865;28;20019;-76
2021/08/30 08:06:07;;;;;;;1120.25;999.90;;;;;;;;;;4958377;28;20030;-77
2021/08/30 08:08:34;;;;;;;1122.22;999.90;;;;;;;;;;4964607;28;20030;-78
2021/08/30 08:11:00;;;;;;;1130.82;999.90;;;;;;;;;;4958866;28;20025;-79
2021/08/30 08:13:29;;;;;;;1138.55;999.90;;;;;;;;;;4971931;28;20458;-78
2021/08/30 08:15:55;;;;;;;1132.10;999.90;;;;;;;;;;4955868;28;20054;-78
2021/08/30 08:18:21;;;;;;;1120.25;999.90;;;;;;;;;;4985603;28;20558;-77
2021/08/30 08:20:48;;;;;;;1124.78;999.90;;;;;;;;;;4972611;28;20035;-81
2021/08/30 08:23:14;;;;;;;1141.60;999.90;;;;;;;;;;4951995;28;20031;-80
2021/08/30 08:25:40;;;;;;;1140.32;999.90;;;;;;;;;;4959930;28;20555;-79
2021/08/30 08:28:06;;;;;;;1141.13;999.90;;;;;;;;;;4961009;28;20023;-79
2021/08/30 08:30:33;;;;;;;1122.45;999.90;;;;;;;;;;4980611;28;20510;-80
2021/08/30 08:32:59;;;;;;;1124.50;999.90;;;;;;;;;;4959423;28;20023;-80
2021/08/30 08:35:25;;;;;;;1125.22;999.90;;;;;;;;;;4960869;28;20042;-80
2021/08/30 08:37:51;;;;;;;1124.07;999.90;;;;;;;;;;4965065;28;20042;-80
2021/08/30 08:40:17;;;;;;;1112.25;999.90;;;;;;;;;;4961329;28;20030;-80
2021/08/30 08:42:44;;;;;;;1115.80;999.90;;;;;;;;;;4958530;28;20030;-79
2021/08/30 08:45:11;;;;;;;1119.40;999.90;;;;;;;;;;4962343;28;20114;-80
2021/08/30 08:47:38;;;;;;;1118.63;999.90;;;;;;;;;;4959302;28;20700;-80
2021/08/30 08:50:06;;;;;;;1133.75;999.90;;;;;;;;;;4962175;28;20445;-80
2021/08/30 08:52:33;;;;;;;1148.13;999.90;;;;;;;;;;4966830;28;20117;-79
2021/08/30 08:55:00;;;;;;;1158.03;999.90;;;;;;;;;;4955795;28;20619;-80
2021/08/30 08:57:26;;;;;;;1176.43;999.90;;;;;;;;;;4959845;28;20027;-79
2021/08/30 09:00:06;;;;;;;1174.80;999.90;;;;;;;;;;4961714;28;20410;-80
2021/08/30 09:02:34;;;;;;;1169.07;999.90;;;;;;;;;;4950121;28;20742;-79
2021/08/30 09:05:00;;;;;;;1170.22;999.90;;;;;;;;;;4966775;28;20059;-80
2021/08/30 09:07:42;;;;;;;1177.53;999.90;;;;;;;;;;4958063;28;20726;-80
2021/08/30 09:10:16;;;;;;;1175.75;999.90;;;;;;;;;;4970809;28;20073;-81
2021/08/30 09:12:42;;;;;;;1177.43;999.90;;;;;;;;;;4960108;28;20656;-81
2021/08/30 09:15:25;;;;;;;1185.50;999.90;;;;;;;;;;4960086;28;20056;-81
2021/08/30 09:17:52;;;;;;;1175.82;999.90;;;;;;;;;;4956667;28;20042;-79
2021/08/30 09:20:19;;;;;;;1179.78;999.90;;;;;;;;;;4961100;28;20023;-80
2021/08/30 09:22:45;;;;;;;1172.40;999.90;;;;;;;;;;4956180;28;20038;-80
2021/08/30 09:25:11;;;;;;;1175.82;999.90;;;;;;;;;;4945582;28;20053;-81
2021/08/30 09:27:39;;;;;;;1168.85;999.90;;;;;;;;;;4950704;28;20033;-82
2021/08/30 09:30:06;;;;;;;1175.55;999.90;;;;;;;;;;4976031;28;20486;-81
2021/08/30 09:32:34;;;;;;;1181.07;999.90;;;;;;;;;;4956849;28;20497;-82
2021/08/30 09:35:02;;;;;;;1179.43;999.90;;;;;;;;;;4966423;28;20035;-81
2021/08/30 09:37:46;;;;;;;1185.05;999.90;;;;;;;;;;4958007;28;20035;-81
2021/08/30 09:40:17;;;;;;;1183.22;999.90;;;;;;;;;;4968629;28;20341;-80
2021/08/30 09:42:43;;;;;;;;;;;;;;;;;;4982285;28;20041;-81
2021/08/30 09:45:10;;;;;;;1176.20;999.90;;;;;;;;;;4956436;28;19910;-80
2021/08/30 09:47:36;;;;;;;1187.20;999.90;;;;;;;;;;4949810;28;20474;-82
2021/08/30 09:50:02;;;;;;;1191.18;999.90;;;;;;;;;;4952649;28;20229;-81
2021/08/30 09:52:28;;;;;;;1183.00;999.90;;;;;;;;;;4951924;28;20027;-81
2021/08/30 09:54:54;;;;;;;1196.53;999.90;;;;;;;;;;4951675;28;20019;-82
2021/08/30 09:57:22;;;;;;;1191.05;999.90;;;;;;;;;;4973645;28;20093;-81
2021/08/30 09:59:50;;;;;;;1194.28;999.90;;;;;;;;;;4959061;28;20037;-82
2021/08/30 10:02:17;;;;;;;1200.15;999.90;;;;;;;;;;4988966;28;20260;-82
2021/08/30 10:04:44;;;;;;;1214.38;999.90;;;;;;;;;;4968508;28;20038;-83
2021/08/30 10:07:11;;;;;;;1221.90;999.90;;;;;;;;;;4971388;28;20022;-82
2021/08/30 10:09:37;;;;;;;1224.65;999.90;;;;;;;;;;4971130;28;20516;-82
2021/08/30 10:12:03;;;;;;;1224.75;999.90;;;;;;;;;;4970163;28;20108;-82
2021/08/30 10:14:30;;;;;;;1224.00;999.90;;;;;;;;;;4984543;28;20030;-82
2021/08/30 10:16:57;;;;;;;1218.93;999.90;;;;;;;;;;4985224;28;20034;-81
2021/08/30 10:19:27;;;;;;;1205.72;999.90;;;;;;;;;;4970498;28;20046;-82
2021/08/30 10:21:53;;;;;;;;;;;;;;;;;;4996997;28;20444;-83
2021/08/30 10:24:19;;;;;;;1194.25;999.90;;;;;;;;;;4965598;28;19971;-83
2021/08/30 10:26:46;;;;;;;1196.13;999.90;;;;;;;;;;4971786;28;20026;-81
2021/08/30 10:29:13;;;;;;;1195.38;999.90;;;;;;;;;;4977146;28;20027;-78
2021/08/30 10:31:50;;;;;;;1202.90;999.90;;;;;;;;;;4999773;28;20100;-80
2021/08/30 10:34:25;;;;;;;1196.47;999.90;;;;;;;;;;4981737;28;20088;-79
2021/08/30 10:36:52;;;;;;;1193.97;999.90;;;;;;;;;;4993659;28;20121;-79
2021/08/30 10:39:18;;;;;;;1199.13;999.90;;;;;;;;;;4979308;28;20153;-78
2021/08/30 10:41:44;;;;;;;1196.85;999.90;;;;;;;;;;4976652;28;20116;-79
2021/08/30 10:44:14;;;;;;;1197.45;999.90;;;;;;;;;;4973373;28;20074;-79
2021/08/30 10:46:44;;;;;;;1197.80;999.90;;;;;;;;;;4975891;28;20035;-78
2021/08/30 10:49:16;;;;;;;1199.20;999.90;;;;;;;;;;4980189;28;20062;-79
2021/08/30 10:51:42;;;;;;;1215.20;999.90;;;;;;;;;;4987827;28;20763;-79
2021/08/30 10:54:12;;;;;;;1223.20;999.90;;;;;;;;;;4991588;28;20474;-79
2021/08/30 10:56:38;;;;;;;1213.50;999.90;;;;;;;;;;4980100;28;20109;-79
2021/08/30 10:59:09;;;;;;;1220.05;999.90;;;;;;;;;;4971973;28;21786;-77
2021/08/30 11:01:36;;;;;;;1226.85;999.90;;;;;;;;;;4988510;28;20143;-81
2021/08/30 11:04:02;;;;;;;1237.20;999.90;;;;;;;;;;4975386;28;20030;-80
2021/08/30 11:06:28;;;;;;;1237.47;999.90;;;;;;;;;;4970789;28;20030;-79
2021/08/30 11:08:54;;;;;;;1237.88;999.90;;;;;;;;;;4962601;28;20038;-79
2021/08/30 11:11:23;;;;;;;1233.82;999.90;;;;;;;;;;4970033;28;20045;-77
2021/08/30 11:14:00;;;;;;;1232.22;999.90;;;;;;;;;;4970015;28;20034;-79
2021/08/30 11:16:26;;;;;;;1231.70;999.90;;;;;;;;;;4984461;28;20019;-79
2021/08/30 11:18:55;;;;;;;1227.13;999.90;;;;;;;;;;4990394;28;20034;-78
2021/08/30 11:21:38;;;;;;;1230.97;999.90;;;;;;;;;;5000529;28;20038;-79
2021/08/30 11:24:05;;;;;;;1225.95;999.90;;;;;;;;;;4960895;28;20014;-78
2021/08/30 11:26:37;;;;;;;1229.47;999.90;;;;;;;;;;4989419;28;20061;-78
2021/08/30 11:29:07;;;;;;;1226.65;999.90;;;;;;;;;;4984817;28;20030;-79
2021/08/30 11:31:39;;;;;;;1226.63;999.90;;;;;;;;;;4987738;28;20401;-79
2021/08/30 11:34:10;;;;;;;1232.30;999.90;;;;;;;;;;4974475;28;20039;-78
2021/08/30 11:36:46;;;;;;;1257.00;999.90;;;;;;;;;;4991609;28;20061;-79
2021/08/30 11:39:14;;;;;;;1280.40;999.90;;;;;;;;;;4978898;28;20030;-79
2021/08/30 11:41:41;;;;;;;1298.70;999.90;;;;;;;;;;4978131;28;20109;-80
2021/08/30 11:44:07;;;;;;;1295.13;999.90;;;;;;;;;;4968794;28;20031;-78
2021/08/30 11:46:43;;;;;;;1332.32;999.90;;;;;;;;;;4988684;28;20026;-78
2021/08/30 11:49:09;;;;;;;1357.20;999.90;;;;;;;;;;4971681;28;20500;-78
2021/08/30 11:51:42;;;;;;;1371.93;999.90;;;;;;;;;;4971058;28;20362;-79
2021/08/30 11:54:47;;;;;;;1365.07;999.90;;;;;;;;;;4966971;28;20125;-79
2021/08/30 11:57:14;;;;;;;1364.80;999.90;;;;;;;;;;4902691;29;20048;-79
2021/08/30 11:59:41;;;;;;;1355.13;999.90;;;;;;;;;;4905511;29;20457;-78
2021/08/30 12:02:11;;;;;;;1353.47;999.90;;;;;;;;;;4930801;28;20038;-80
2021/08/30 12:07:41;;;;;;;1356.10;999.90;;;;;;;;;;4995163;28;20025;-78
2021/08/30 12:10:08;;;;;;;1367.45;999.90;;;;;;;;;;4987640;28;20037;-79
2021/08/30 12:12:37;;;;;;;1378.47;999.90;;;;;;;;;;4992373;28;20026;-80
2021/08/30 12:15:06;;;;;;;1373.20;999.90;;;;;;;;;;4974132;28;20401;-79
2021/08/30 12:17:55;;;;;;;1364.88;999.90;;;;;;;;;;4988296;28;20034;-80
2021/08/30 12:20:24;;;;;;;1350.25;999.90;;;;;;;;;;4979885;28;20122;-75
2021/08/30 12:22:53;;;;;;;1336.30;999.90;;;;;;;;;;4969525;28;20039;-79
2021/08/30 12:25:20;;;;;;;1337.20;999.90;;;;;;;;;;4976308;28;20460;-79
2021/08/30 12:27:47;;;;;;;1340.72;999.90;;;;;;;;;;4982244;28;20022;-78
2021/08/30 12:30:18;;;;;;;1332.63;999.90;;;;;;;;;;4984488;28;20031;-79
2021/08/30 12:32:47;;;;;;;1327.50;999.90;;;;;;;;;;4990387;28;20030;-80
2021/08/30 12:35:25;;;;;;;1318.27;999.90;;;;;;;;;;4975308;28;20121;-80
2021/08/30 12:37:55;;;;;;;1321.45;999.90;;;;;;;;;;4980670;28;20281;-79
2021/08/30 12:40:22;;;;;;;1311.75;999.90;;;;;;;;;;4993796;28;20390;-78
2021/08/30 12:42:53;;;;;;;1316.30;999.90;;;;;;;;;;4975463;28;20156;-78
2021/08/30 12:45:19;;;;;;;1297.47;999.90;;;;;;;;;;4983806;28;20462;-78
2021/08/30 12:47:45;;;;;;;1274.43;999.90;;;;;;;;;;4987032;28;20036;-77
2021/08/30 12:50:12;;;;;;;1278.95;999.90;;;;;;;;;;4977289;28;20028;-79
2021/08/30 12:52:38;;;;;;;1279.50;999.90;;;;;;;;;;4981643;28;20458;-79
2021/08/30 12:55:05;;;;;;;1277.82;999.90;;;;;;;;;;4972949;28;20334;-79
2021/08/30 12:57:31;;;;;;;1267.38;999.90;;;;;;;;;;4969838;28;20081;-80
2021/08/30 12:59:57;;;;;;;1265.60;999.90;;;;;;;;;;4996558;28;20034;-80
2021/08/30 13:02:23;;;;;;;1273.65;999.90;;;;;;;;;;4996462;28;20076;-80
2021/08/30 13:04:49;;;;;;;1271.32;999.90;;;;;;;;;;4972377;28;20030;-80
2021/08/30 13:07:15;;;;;;;1269.30;999.90;;;;;;;;;;4978101;28;20029;-79
2021/08/30 13:09:41;;;;;;;1260.03;999.90;;;;;;;;;;4989439;28;20026;-78
2021/08/30 13:12:07;;;;;;;1261.57;999.90;;;;;;;;;;4978350;28;20084;-78
2021/08/30 13:14:33;;;;;;;1256.20;999.90;;;;;;;;;;4970996;28;20088;-79
2021/08/30 13:16:59;;;;;;;1258.07;999.90;;;;;;;;;;4973208;28;20034;-79
2021/08/30 13:19:25;;;;;;;1263.63;999.90;;;;;;;;;;4974591;28;20070;-79
2021/08/30 13:21:51;;;;;;;1264.55;999.90;;;;;;;;;;4983381;28;20460;-79
2021/08/30 13:24:17;;;;;;;1264.85;999.90;;;;;;;;;;4993165;28;20058;-78
2021/08/30 13:26:43;;;;;;;1255.90;999.90;;;;;;;;;;4975029;28;20026;-78
2021/08/30 13:29:09;;;;;;;1256.25;999.90;;;;;;;;;;4980928;28;20033;-79
2021/08/30 13:31:35;;;;;;;1257.93;999.90;;;;;;;;;;4993960;28;20389;-79
2021/08/30 13:34:01;;;;;;;1255.70;999.90;;;;;;;;;;4973367;28;20073;-78
2021/08/30 13:36:27;;;;;;;1235.55;999.90;;;;;;;;;;4988744;28;20267;-78
2021/08/30 13:38:52;;;;;;;1253.43;999.90;;;;;;;;;;4988825;28;20375;-79
2021/08/30 13:41:19;;;;;;;1258.13;999.90;;;;;;;;;;4991632;28;20061;-80
2021/08/30 13:43:45;;;;;;;1256.85;999.90;;;;;;;;;;4977984;28;20203;-79
2021/08/30 13:46:11;;;;;;;1245.07;999.90;;;;;;;;;;4999633;28;20072;-78
2021/08/30 13:48:41;;;;;;;1247.18;999.90;;;;;;;;;;4991961;28;20101;-78
2021/08/30 13:51:07;;;;;;;1261.82;999.90;;;;;;;;;;4989080;28;20029;-79
2021/08/30 13:53:33;;;;;;;1292.63;999.90;;;;;;;;;;4971481;28;20141;-78